LiveATC.Net - Listen to live air traffic control over the Internet!


ICAO: RCTP  IATA: TPE   Airport: Taiwan Taoyuan International Airport
City: Taipei
Country: Taiwan   Continent: Asia
RCTP METAR Weather: RCTP 181800Z 21005KT 9999 FEW020 BKN060 27/26 Q1003 NOSIG RMK A2962
RCTP Flight Activity (FlightAware)

RCTP Approach
Feed Status: DOWN
Last heard on: 2018-08-18 03:12:03 (0 days 15 hours 33 minutes ago)
RCTP Approach Audio Archives
FacilityFrequency
Emergency/Guard121.500
Taipei Approach125.100
Taipei Approach125.600
Taipei Approach128.500

RCTP Tower
Feed Status: DOWN
Last heard on: 2018-08-18 04:38:03 (0 days 14 hours 7 minutes ago)
RCTP Tower Audio Archives
FacilityFrequency
Taipei Tower118.700

NOTICE

Unauthorized use prohibited. See LiveATC.net Terms of Service


Find LiveATC Audio Streams


Airport/ARTCC Code

Frequency Search
(e.g., 124.400, 128.75)
Site-wide search
 


Browse LiveATC Feeds
Top 50 LiveATC Feeds
Bad Weather Areas

LiveATC FAQ
Offer a LiveATC Feed
Contact LiveATC.net
Press Inquiries

LiveATC on iPhone
LiveATC on Android

Windows Phone
Windows 8/10

LiveATC Mobile
(Mobile browser)

ATC Audio Archives
Interesting Recordings

LiveATC Forums


Home Page
About LiveATC.net
Make a Donation
Terms of Use
Privacy Policy

Canadian Air Freqs

AIRMETs/SIGMETs

FAA Airport Status
Nat'l Airspace Status
Arrival Demand Charts


Server Software By:
Icecast.org
Liquidsoap